createdAt,value
2023-03-22T00:00:15.255Z,2.60
2023-03-22T00:02:44.480Z,2.60
2023-03-22T00:05:14.425Z,2.60
2023-03-22T00:07:43.651Z,2.60
2023-03-22T00:10:12.913Z,2.60
2023-03-22T00:12:41.481Z,2.60
2023-03-22T00:15:11.329Z,2.60
2023-03-22T00:17:39.580Z,2.60
2023-03-22T00:20:09.352Z,2.60
2023-03-22T00:22:39.779Z,2.60
2023-03-22T00:25:08.985Z,2.60
2023-03-22T00:27:37.565Z,2.60
2023-03-22T00:30:09.187Z,2.70
2023-03-22T00:32:38.194Z,2.70
2023-03-22T00:35:08.027Z,2.70
2023-03-22T00:37:38.804Z,2.70
2023-03-22T00:40:10.055Z,2.70
2023-03-22T00:42:39.290Z,2.70
2023-03-22T00:45:10.071Z,2.70
2023-03-22T00:47:39.626Z,2.70
2023-03-22T00:50:09.638Z,2.70
2023-03-22T00:52:39.685Z,2.60
2023-03-22T00:55:09.329Z,2.60
2023-03-22T00:57:38.028Z,2.60
2023-03-22T01:00:11.830Z,2.70
2023-03-22T01:02:40.484Z,2.70
2023-03-22T01:05:15.838Z,2.70
2023-03-22T01:07:46.414Z,2.70
2023-03-22T01:10:15.031Z,2.70
2023-03-22T01:12:43.514Z,2.70
2023-03-22T01:15:13.040Z,2.70
2023-03-22T01:17:41.767Z,2.70
2023-03-22T01:20:12.063Z,2.70
2023-03-22T01:22:41.580Z,2.60
2023-03-22T01:25:12.090Z,2.60
2023-03-22T01:27:40.853Z,2.60
2023-03-22T01:30:10.875Z,2.50
2023-03-22T01:32:39.809Z,2.50
2023-03-22T01:35:09.488Z,2.50
2023-03-22T01:37:39.229Z,2.50
2023-03-22T01:40:09.764Z,2.60
2023-03-22T01:42:40.073Z,2.60
2023-03-22T01:45:37.578Z,2.60
2023-03-22T01:48:14.998Z,2.60
2023-03-22T01:50:47.246Z,2.70
2023-03-22T01:53:23.760Z,2.70
2023-03-22T01:55:55.080Z,2.70
2023-03-22T01:58:32.296Z,2.70
2023-03-22T02:01:05.268Z,2.60
2023-03-22T02:03:52.385Z,2.60
2023-03-22T02:06:22.638Z,2.60
2023-03-22T02:08:58.538Z,2.50
2023-03-22T02:11:33.628Z,2.40
2023-03-22T02:14:34.607Z,2.40
2023-03-22T02:17:32.229Z,2.40
2023-03-22T02:20:47.202Z,2.40
2023-03-22T02:23:57.858Z,2.40
2023-03-22T02:26:59.690Z,2.40
2023-03-22T02:29:37.968Z,2.40
2023-03-22T02:32:37.648Z,2.30
2023-03-22T02:35:22.614Z,2.30
2023-03-22T02:38:26.540Z,2.30
2023-03-22T02:41:02.291Z,2.30
2023-03-22T02:43:38.858Z,2.30
2023-03-22T02:46:11.602Z,2.30
2023-03-22T02:48:46.092Z,2.30
2023-03-22T02:51:19.249Z,2.30
2023-03-22T02:53:54.144Z,2.30
2023-03-22T02:56:28.619Z,2.30
2023-03-22T02:59:00.220Z,2.30
2023-03-22T03:01:31.813Z,2.30
2023-03-22T03:04:04.895Z,2.30
2023-03-22T03:06:39.046Z,2.30
2023-03-22T03:09:10.117Z,2.40
2023-03-22T03:11:40.128Z,2.40
2023-03-22T03:14:08.712Z,2.40
2023-03-22T03:16:37.399Z,2.40
2023-03-22T03:19:15.184Z,2.40
2023-03-22T03:21:53.701Z,2.50
2023-03-22T03:24:29.000Z,2.50
2023-03-22T03:27:05.352Z,2.60
2023-03-22T03:29:40.857Z,2.50
2023-03-22T03:32:16.775Z,2.50
2023-03-22T03:34:54.275Z,2.50
2023-03-22T03:37:27.226Z,2.50
2023-03-22T03:40:04.945Z,2.50
2023-03-22T03:42:35.484Z,2.50
2023-03-22T03:45:08.707Z,2.60
2023-03-22T03:47:40.325Z,2.50
2023-03-22T03:50:10.445Z,2.60
2023-03-22T03:52:39.050Z,2.60
2023-03-22T03:55:08.417Z,2.60
2023-03-22T03:57:38.981Z,2.50
2023-03-22T04:00:09.490Z,2.50
2023-03-22T04:03:07.707Z,2.50
2023-03-22T04:05:54.277Z,2.40
2023-03-22T04:08:23.897Z,2.40
2023-03-22T04:10:53.248Z,2.40
2023-03-22T04:13:25.324Z,2.30
2023-03-22T04:15:58.186Z,2.30
2023-03-22T04:18:29.825Z,2.30
2023-03-22T04:21:01.422Z,2.30
2023-03-22T04:23:34.790Z,2.30
2023-03-22T04:26:03.796Z,2.30
2023-03-22T04:28:44.145Z,2.30
2023-03-22T04:31:13.782Z,2.40
2023-03-22T04:33:54.981Z,2.30
2023-03-22T04:36:31.374Z,2.30
2023-03-22T04:39:22.818Z,2.30
2023-03-22T04:42:02.286Z,2.30
2023-03-22T04:44:32.455Z,2.40
2023-03-22T04:47:01.143Z,2.40
2023-03-22T04:49:29.938Z,2.40
2023-03-22T04:51:59.010Z,2.40
2023-03-22T04:54:32.717Z,2.50
2023-03-22T04:57:02.072Z,2.50
2023-03-22T04:59:36.475Z,2.50
2023-03-22T05:02:05.332Z,2.60
2023-03-22T05:04:41.045Z,2.60
2023-03-22T05:07:33.053Z,2.60
2023-03-22T05:10:04.172Z,2.60
2023-03-22T05:12:32.938Z,2.60
2023-03-22T05:15:14.940Z,2.60
2023-03-22T05:17:44.040Z,2.60
2023-03-22T05:20:13.667Z,2.60
2023-03-22T05:22:45.435Z,2.60
2023-03-22T05:25:14.043Z,2.60
2023-03-22T05:27:45.902Z,2.70
2023-03-22T05:30:34.980Z,2.70
2023-03-22T05:33:22.015Z,2.70
2023-03-22T05:35:54.689Z,2.70
2023-03-22T05:38:24.819Z,2.80
2023-03-22T05:40:57.616Z,2.80
2023-03-22T05:43:26.270Z,2.80
2023-03-22T05:45:56.469Z,2.80
2023-03-22T05:48:39.061Z,2.90
2023-03-22T05:51:09.073Z,2.90
2023-03-22T05:53:38.094Z,3.00
2023-03-22T05:58:42.974Z,3.20
2023-03-22T06:01:16.575Z,3.30
2023-03-22T06:03:48.613Z,3.30
2023-03-22T06:06:28.764Z,3.10
2023-03-22T06:09:16.941Z,3.20
2023-03-22T06:11:49.703Z,3.30
2023-03-22T06:14:18.827Z,3.30
2023-03-22T06:17:04.758Z,3.30
2023-03-22T06:19:33.411Z,3.40
2023-03-22T06:22:05.796Z,3.50
2023-03-22T06:24:36.924Z,3.50
2023-03-22T06:27:08.789Z,3.60
2023-03-22T06:29:37.982Z,3.60
2023-03-22T06:32:09.590Z,3.70
2023-03-22T06:34:38.396Z,3.80
2023-03-22T06:37:07.824Z,3.90
2023-03-22T06:39:39.774Z,4.00
2023-03-22T06:42:08.562Z,4.00
2023-03-22T06:44:37.296Z,4.00
2023-03-22T06:47:14.911Z,4.10
2023-03-22T06:50:03.679Z,4.10
2023-03-22T06:53:10.470Z,4.10
2023-03-22T06:55:40.724Z,4.10
2023-03-22T06:58:16.242Z,4.10
2023-03-22T07:00:44.750Z,4.20
2023-03-22T07:03:16.978Z,4.20
2023-03-22T07:05:54.027Z,4.30
2023-03-22T07:08:22.734Z,4.30
2023-03-22T07:10:52.646Z,4.30
2023-03-22T07:13:24.434Z,4.40
2023-03-22T07:15:57.688Z,4.40
2023-03-22T07:18:50.924Z,4.50
2023-03-22T07:21:19.841Z,4.50
2023-03-22T07:23:53.562Z,4.60
2023-03-22T07:26:26.159Z,4.70
2023-03-22T07:28:57.754Z,4.70
2023-03-22T07:31:31.692Z,4.80
2023-03-22T07:34:14.688Z,4.90
2023-03-22T07:36:57.186Z,5.00
2023-03-22T07:39:26.365Z,5.10
2023-03-22T07:41:55.511Z,5.10
2023-03-22T07:44:49.861Z,5.10
2023-03-22T07:47:37.769Z,5.10
2023-03-22T07:50:29.565Z,5.20
2023-03-22T07:53:01.537Z,5.30
2023-03-22T07:58:01.144Z,5.70
2023-03-22T08:00:30.118Z,5.50
2023-03-22T08:03:18.688Z,5.60
2023-03-22T08:06:04.495Z,5.60
2023-03-22T08:08:33.558Z,5.70
2023-03-22T08:11:02.254Z,5.70
2023-03-22T08:13:30.801Z,5.70
2023-03-22T08:15:59.576Z,5.80
2023-03-22T08:18:28.495Z,5.80
2023-03-22T08:20:58.165Z,5.80
2023-03-22T08:23:41.412Z,5.80
2023-03-22T08:26:26.286Z,5.80
2023-03-22T08:28:58.490Z,5.80
2023-03-22T08:31:31.772Z,5.80
2023-03-22T08:36:29.989Z,5.90
2023-03-22T08:39:06.198Z,6.00
2023-03-22T08:41:46.220Z,6.00
2023-03-22T08:44:15.419Z,6.10
2023-03-22T08:46:44.223Z,6.10
2023-03-22T08:49:12.950Z,6.10
2023-03-22T08:54:38.300Z,6.50
2023-03-22T08:57:09.596Z,6.30
2023-03-22T09:02:55.192Z,6.50
2023-03-22T09:05:23.891Z,6.60
2023-03-22T09:07:54.333Z,6.60
2023-03-22T09:10:41.699Z,6.70
2023-03-22T09:13:13.620Z,6.70
2023-03-22T09:15:48.104Z,6.80
2023-03-22T09:18:26.071Z,6.80
2023-03-22T09:20:57.174Z,6.90
2023-03-22T09:26:05.760Z,6.90
2023-03-22T09:28:36.131Z,6.90
2023-03-22T09:31:09.790Z,7.00
2023-03-22T09:33:41.639Z,7.00
2023-03-22T09:36:12.005Z,7.00
2023-03-22T09:38:42.208Z,7.10
2023-03-22T09:41:17.853Z,7.10
2023-03-22T09:43:50.409Z,7.10
2023-03-22T09:46:25.254Z,7.20
2023-03-22T09:48:54.169Z,7.20
2023-03-22T09:51:35.184Z,7.20
2023-03-22T09:54:05.517Z,7.30
2023-03-22T09:56:35.673Z,7.30
2023-03-22T09:59:10.702Z,7.30
2023-03-22T10:01:47.343Z,7.30
2023-03-22T10:04:42.053Z,7.30
2023-03-22T10:07:19.481Z,7.30
2023-03-22T10:09:54.934Z,7.30
2023-03-22T10:12:29.765Z,7.30
2023-03-22T10:15:05.813Z,7.30
2023-03-22T10:17:36.788Z,7.30
2023-03-22T10:20:09.651Z,7.30
2023-03-22T10:22:43.174Z,7.30
2023-03-22T10:25:19.584Z,7.20
2023-03-22T10:27:52.736Z,7.20
2023-03-22T10:30:24.292Z,7.20
2023-03-22T10:32:58.518Z,7.30
2023-03-22T10:35:27.555Z,7.30
2023-03-22T10:37:58.887Z,7.40
2023-03-22T10:40:30.068Z,7.40
2023-03-22T10:43:07.414Z,7.50
2023-03-22T10:45:37.487Z,7.50
2023-03-22T10:48:10.989Z,7.60
2023-03-22T10:50:44.411Z,7.70
2023-03-22T10:53:18.490Z,7.80
2023-03-22T10:55:47.184Z,7.80
2023-03-22T11:03:40.252Z,7.90
2023-03-22T11:06:12.941Z,7.80
2023-03-22T11:08:46.748Z,7.80
2023-03-22T11:11:18.644Z,7.80
2023-03-22T11:13:55.706Z,7.80
2023-03-22T11:16:25.640Z,7.80
2023-03-22T11:18:55.786Z,7.80
2023-03-22T11:21:30.092Z,7.80
2023-03-22T11:24:02.566Z,7.80
2023-03-22T11:26:38.810Z,7.80
2023-03-22T11:29:19.214Z,7.90
2023-03-22T11:31:58.444Z,7.80
2023-03-22T11:34:30.241Z,7.90
2023-03-22T11:37:02.310Z,7.90
2023-03-22T11:39:31.525Z,7.90
2023-03-22T11:42:02.055Z,7.90
2023-03-22T11:44:38.159Z,7.80
2023-03-22T11:47:10.098Z,7.90
2023-03-22T11:49:57.497Z,7.90
2023-03-22T11:52:28.716Z,7.80
2023-03-22T11:55:00.418Z,7.80
2023-03-22T11:57:31.674Z,7.80
2023-03-22T12:00:08.247Z,7.80
2023-03-22T12:02:44.090Z,7.70
2023-03-22T12:05:19.627Z,7.80
2023-03-22T12:07:49.389Z,7.80
2023-03-22T12:10:24.219Z,7.80
2023-03-22T12:12:55.694Z,7.90
2023-03-22T12:15:30.262Z,7.90
2023-03-22T12:18:07.725Z,7.90
2023-03-22T12:20:43.406Z,7.90
2023-03-22T12:23:16.821Z,7.90
2023-03-22T12:25:51.776Z,7.90
2023-03-22T12:28:24.479Z,7.90
2023-03-22T12:30:58.831Z,7.90
2023-03-22T12:33:29.939Z,7.80
2023-03-22T12:36:00.389Z,7.80
2023-03-22T12:38:35.608Z,7.80
2023-03-22T12:41:07.203Z,7.80
2023-03-22T12:43:52.513Z,7.80
2023-03-22T12:46:25.815Z,7.70
2023-03-22T12:48:57.351Z,7.70
2023-03-22T12:51:26.342Z,7.70
2023-03-22T12:53:57.351Z,7.70
2023-03-22T12:56:30.521Z,7.70
2023-03-22T12:59:03.824Z,7.70
2023-03-22T13:01:39.040Z,7.70
2023-03-22T13:04:31.791Z,7.70
2023-03-22T13:07:11.784Z,7.70
2023-03-22T13:09:43.674Z,7.80
2023-03-22T13:12:31.671Z,7.80
2023-03-22T13:15:03.738Z,7.80
2023-03-22T13:17:51.421Z,7.80
2023-03-22T13:20:41.335Z,7.90
2023-03-22T13:23:28.211Z,7.90
2023-03-22T13:26:02.705Z,7.90
2023-03-22T13:28:37.201Z,7.90
2023-03-22T13:31:07.072Z,7.90
2023-03-22T13:33:37.807Z,8.00
2023-03-22T13:36:23.202Z,8.00
2023-03-22T13:38:56.569Z,8.00
2023-03-22T13:41:29.498Z,8.00
2023-03-22T13:43:59.718Z,8.00
2023-03-22T13:46:43.963Z,8.10
2023-03-22T13:49:44.674Z,8.10
2023-03-22T13:52:26.694Z,8.10
2023-03-22T13:54:58.618Z,8.20
2023-03-22T13:57:45.709Z,8.20
2023-03-22T14:00:48.429Z,8.20
2023-03-22T14:03:25.645Z,8.20
2023-03-22T14:06:06.276Z,8.20
2023-03-22T14:08:37.583Z,8.20
2023-03-22T14:11:20.441Z,8.20
2023-03-22T14:13:52.477Z,8.20
2023-03-22T14:16:29.458Z,8.20
2023-03-22T14:18:58.815Z,8.20
2023-03-22T14:21:34.242Z,8.20
